Time;durP1;ratioP1;P1;durP2;ratioP2;P2;SDS_P1;SDS_P2;PMS_P1;PMS_P2;Temp;Humidity;BMP_temperature;BMP_pressure;BME280_temperature;BME280_humidity;BME280_pressure;Samples;Min_cycle;Max_cycle;Signal;HPM_P1;HPM_P2
2022/10/09 00:01:29;;;;;;;;;;;15.30;65.00;;;10.80;87.00;96112.41;5004677;28;19935;-52
2022/10/09 00:03:57;;;;;;;;;;;15.30;64.90;;;10.74;87.10;96118.75;4998261;28;19960;-49
2022/10/09 00:06:32;;;;;;;;;;;15.20;64.90;;;10.77;86.73;96120.09;5020302;28;20011;-50
2022/10/09 00:09:03;;;;;;;;;;;15.20;64.90;;;10.72;86.49;96107.56;5005390;28;20368;-50
2022/10/09 00:11:33;;;;;;;;;;;15.20;64.90;;;10.73;86.45;96103.81;5005578;28;20276;-52
2022/10/09 00:14:00;;;;;;;;;;;15.20;64.90;;;10.67;86.35;96098.69;5028642;28;19919;-50
2022/10/09 00:16:26;;;;;;;;;;;15.20;64.90;;;10.62;86.88;96104.78;4981729;28;19909;-51
2022/10/09 00:18:53;;;;;;;;;;;15.10;64.80;;;10.60;87.33;96102.38;5015643;28;19932;-49
2022/10/09 00:21:24;;;;;;;;;;;15.10;64.70;;;10.56;86.70;96098.63;4988372;28;19941;-50
2022/10/09 00:23:57;;;;;;;;;;;15.10;64.80;;;10.54;87.29;96095.38;5028450;28;19917;-49
2022/10/09 00:26:24;;;;;;;;;;;15.00;64.70;;;10.49;87.42;96095.31;5012745;28;20015;-50
2022/10/09 00:28:54;;;;;;;;;;;15.00;64.70;;;10.41;88.15;96098.44;5001735;28;20367;-50
2022/10/09 00:31:23;;;;;;;;;;;15.00;64.60;;;10.37;87.89;96089.34;4999889;28;20012;-51
2022/10/09 00:33:49;;;;;;;;;;;14.90;64.60;;;10.33;88.30;96086.38;5008324;28;19908;-50
2022/10/09 00:36:20;;;;;;;;;;;14.90;64.60;;;10.27;88.59;96090.03;5012015;28;19909;-50
2022/10/09 00:38:47;;;;;;;;;;;14.80;64.60;;;10.23;88.65;96078.25;5009928;28;19909;-51
2022/10/09 00:41:24;;;;;;;;;;;14.80;64.70;;;10.19;88.69;96083.28;5008351;28;19937;-49
2022/10/09 00:44:02;;;;;;;;;;;14.70;64.70;;;10.20;88.67;96084.06;5011748;28;20023;-50
2022/10/09 00:46:50;;;;;;;;;;;14.70;64.70;;;10.13;89.46;96073.63;4994978;28;19909;-49
2022/10/09 00:49:29;;;;;;;;;;;14.60;64.70;;;10.12;89.57;96082.69;5012355;28;19917;-50
2022/10/09 00:52:02;;;;;;;;;;;14.60;64.80;;;10.10;89.90;96082.09;4998526;28;19910;-50
2022/10/09 00:54:33;;;;;;;;;;;14.50;64.80;;;10.05;90.24;96086.56;5012130;28;19936;-50
2022/10/09 00:56:59;;;;;;;;;;;14.50;64.90;;;9.96;90.41;96081.69;5024057;28;19925;-51
2022/10/09 00:59:26;;;;;;;;;;;14.50;64.80;;;9.93;90.70;96073.38;5005169;28;19959;-51
2022/10/09 01:01:52;;;;;;;;;;;14.40;64.80;;;9.86;91.18;96073.56;4985782;28;19909;-48
2022/10/09 01:04:18;;;;;;;;;;;14.40;64.90;;;9.84;91.36;96077.53;5004107;28;19909;-49
2022/10/09 01:07:16;;;;;;;;;;;14.30;64.90;;;9.79;91.45;96072.97;5009670;28;19916;-51
2022/10/09 01:09:58;;;;;;;;;;;14.30;65.00;;;9.76;91.77;96070.00;5000824;28;19917;-50
2022/10/09 01:12:59;;;;;;;;;;;14.20;65.00;;;9.70;92.08;96059.28;5004353;28;19913;-51
2022/10/09 01:16:00;;;;;;;;;;;14.20;65.10;;;9.68;92.43;96063.22;5017084;28;20384;-51
2022/10/09 01:18:50;;;;;;;;;;;14.10;65.10;;;9.60;92.51;96051.16;4990977;28;19916;-50
2022/10/09 01:21:49;;;;;;;;;;;14.10;65.30;;;9.59;92.88;96049.56;4990239;28;19909;-50
2022/10/09 01:24:46;;;;;;;;;;;14.00;65.30;;;9.58;92.51;96055.91;4986450;28;19910;-50
2022/10/09 01:27:24;;;;;;;;;;;14.00;65.50;;;9.59;92.27;96043.41;4996546;28;20361;-50
2022/10/09 01:30:07;;;;;;;;;;;14.00;65.50;;;9.60;92.25;96051.16;4992254;28;19963;-49
2022/10/09 01:32:41;;;;;;;;;;;14.00;65.60;;;9.63;92.03;96039.25;4991227;28;19978;-49
2022/10/09 01:35:13;;;;;;;;;;;14.00;65.60;;;9.60;92.06;96043.19;4996440;28;19913;-50
2022/10/09 01:37:44;;;;;;;;;;;14.00;65.60;;;9.58;91.80;96039.97;5007171;28;19967;-51
2022/10/09 01:40:15;;;;;;;;;;;14.00;65.60;;;9.60;92.24;96034.41;4997001;28;20372;-51
2022/10/09 01:42:49;;;;;;;;;;;14.00;65.60;;;9.58;91.70;96045.28;4999867;28;20267;-50
2022/10/09 01:45:21;;;;;;;;;;;13.90;65.50;;;9.62;91.82;96035.78;4991258;28;19910;-48
2022/10/09 01:47:50;;;;;;;;;;;14.00;65.60;;;9.57;91.38;96035.72;4992359;28;19959;-49
2022/10/09 01:50:30;;;;;;;;;;;13.90;65.50;;;9.60;91.16;96032.56;4990588;28;20011;-50
2022/10/09 01:53:23;;;;;;;;;;;13.90;65.50;;;9.58;91.11;96031.19;4989438;28;20000;-48
2022/10/09 01:56:13;;;;;;;;;;;13.90;65.60;;;9.58;90.80;96021.34;4976064;28;19963;-48
2022/10/09 01:59:04;;;;;;;;;;;13.90;65.60;;;9.57;90.91;96016.28;4989654;28;19967;-51
2022/10/09 02:01:35;;;;;;;;;;;13.90;65.60;;;9.58;90.92;96017.88;4991174;28;19917;-49
2022/10/09 02:04:11;;;;;;;;;;;13.90;65.60;;;9.56;90.80;96014.66;4989555;28;19914;-48
2022/10/09 02:06:43;;;;;;;;;;;13.90;65.60;;;9.57;91.14;96010.97;4990623;28;19917;-50
2022/10/09 02:09:16;;;;;;;;;;;13.90;65.50;;;9.52;91.12;96016.22;5005325;28;20445;-52
2022/10/09 02:11:54;;;;;;;;;;;13.90;65.50;;;9.49;91.17;96018.34;4991594;28;19913;-49
2022/10/09 02:14:20;;;;;;;;;;;13.90;65.50;;;9.48;91.42;96013.25;4987494;28;20162;-50
2022/10/09 02:17:10;;;;;;;;;;;13.80;65.50;;;9.43;91.55;96015.84;4986869;28;19914;-50
2022/10/09 02:19:47;;;;;;;;;;;13.80;65.50;;;9.44;91.78;96012.13;4971537;28;19910;-49
2022/10/09 02:22:26;;;;;;;;;;;13.80;65.50;;;9.42;91.47;96009.72;4990434;28;19910;-50
2022/10/09 02:24:53;;;;;;;;;;;13.80;65.50;;;9.40;91.71;96005.69;4987114;28;19917;-48
2022/10/09 02:27:26;;;;;;;;;;;13.80;65.50;;;9.30;92.01;96013.53;4992217;28;20000;-53
2022/10/09 02:29:55;;;;;;;;;;;13.70;65.50;;;9.32;92.31;96019.41;4974118;28;20008;-52
2022/10/09 02:32:21;;;;;;;;;;;13.70;65.50;;;9.23;92.66;96014.50;4971984;28;19997;-53
2022/10/09 02:34:51;;;;;;;;;;;13.70;66.30;;;9.20;92.87;96008.88;5009234;28;19910;-49
2022/10/09 02:37:20;;;;;;;;;;;13.60;65.50;;;9.14;93.02;96015.19;4987242;28;20249;-48
2022/10/09 02:39:46;;;;;;;;;;;13.60;65.50;;;9.16;92.94;96007.78;4971879;28;19910;-49
2022/10/09 02:42:18;;;;;;;;;;;13.60;65.50;;;9.12;93.11;96014.63;5012603;23;19924;-51
2022/10/09 02:44:46;;;;;;;;;;;13.60;65.60;;;9.06;93.35;96005.78;5027625;28;19940;-46
2022/10/09 02:47:12;;;;;;;;;;;13.50;65.50;;;9.02;93.55;96000.16;5012933;28;19912;-47
2022/10/09 02:49:41;;;;;;;;;;;13.50;65.60;;;9.02;93.58;96005.47;5009847;28;19940;-47
2022/10/09 02:52:07;;;;;;;;;;;13.40;65.50;;;8.98;93.57;95995.56;4999677;28;20008;-47
2022/10/09 02:54:36;;;;;;;;;;;13.40;65.60;;;8.94;93.99;95991.78;5011045;28;20055;-49
2022/10/09 02:57:01;;;;;;;;;;;13.40;65.60;;;8.92;94.00;95993.88;5009602;28;20371;-47
2022/10/09 02:59:32;;;;;;;;;;;13.40;65.80;;;8.90;94.19;95980.84;5011072;28;19916;-48
2022/10/09 03:02:04;;;;;;;;;;;13.30;65.70;;;8.85;94.61;95991.41;5030235;28;19909;-50
2022/10/09 03:04:33;;;;;;;;;;;13.30;65.80;;;8.88;94.26;95988.25;5028351;28;20381;-49
2022/10/09 03:07:07;;;;;;;;;;;13.30;65.90;;;8.86;94.72;95986.88;5014806;28;19913;-47
2022/10/09 03:09:36;;;;;;;;;;;13.30;65.90;;;8.85;94.60;95986.09;5021461;28;20382;-46
2022/10/09 03:12:01;;;;;;;;;;;13.30;66.00;;;8.85;94.54;95982.63;5034246;28;19944;-49
2022/10/09 03:14:27;;;;;;;;;;;13.20;65.90;;;8.84;94.77;95995.09;5016646;28;19943;-47
2022/10/09 03:16:53;;;;;;;;;;;13.20;65.90;;;8.81;94.52;95992.94;5018042;28;19976;-46
2022/10/09 03:19:19;;;;;;;;;;;13.20;65.90;;;8.79;94.49;95987.06;5026942;28;19952;-47
2022/10/09 03:21:54;;;;;;;;;;;13.20;65.90;;;8.73;94.47;95988.81;5018222;28;19909;-46
2022/10/09 03:24:19;;;;;;;;;;;13.20;65.90;;;8.66;94.75;95984.72;5014897;28;19916;-47
2022/10/09 03:26:48;;;;;;;;;;;13.20;65.90;;;8.55;95.61;95995.19;5019489;28;20290;-46
2022/10/09 03:29:14;;;;;;;;;;;13.10;65.80;;;8.56;95.39;95985.38;5014345;28;19966;-46
2022/10/09 03:31:42;;;;;;;;;;;13.10;65.90;;;8.54;94.51;95987.47;5028903;28;20615;-47
2022/10/09 03:34:10;;;;;;;;;;;13.00;65.80;;;8.46;94.59;95995.81;5025449;28;20278;-47
2022/10/09 03:36:45;;;;;;;;;;;12.90;65.80;;;8.37;94.89;95990.09;5013050;28;20387;-49
2022/10/09 03:39:20;;;;;;;;;;;12.90;65.80;;;8.27;95.28;95993.38;5013376;28;19909;-46
2022/10/09 03:41:51;;;;;;;;;;;12.80;66.60;;;8.21;94.53;95991.69;5009094;28;19917;-50
2022/10/09 03:44:20;;;;;;;;;;;12.80;65.80;;;8.14;94.71;95984.91;5016109;28;19991;-46
2022/10/09 03:46:49;;;;;;;;;;;12.70;65.80;;;8.03;95.89;95984.72;5014021;28;19962;-51
2022/10/09 03:49:15;;;;;;;;;;;12.60;65.80;;;7.96;95.34;95983.25;5014008;28;19913;-49
2022/10/09 03:51:44;;;;;;;;;;;12.60;66.60;;;7.89;96.29;95980.75;5007402;28;19923;-46
2022/10/09 03:54:12;;;;;;;;;;;12.50;65.90;;;7.84;96.71;95985.97;5033552;28;20359;-50
2022/10/09 03:56:38;;;;;;;;;;;12.50;66.70;;;7.79;97.63;95977.91;5015126;28;20371;-54
2022/10/09 03:59:08;;;;;;;;;;;12.40;66.00;;;7.75;97.60;95979.44;5013730;28;19971;-50
2022/10/09 04:01:34;;;;;;;;;;;12.40;66.10;;;7.70;97.56;95981.97;5013083;28;19966;-52
2022/10/09 04:04:00;;;;;;;;;;;12.30;66.20;;;7.64;97.45;95971.28;4995833;28;19920;-48
2022/10/09 04:06:26;;;;;;;;;;;12.20;66.20;;;7.58;98.65;95974.88;5012400;28;19921;-51
2022/10/09 04:08:52;;;;;;;;;;;12.20;66.20;;;7.54;98.71;95983.53;5028123;28;20255;-48
2022/10/09 04:11:18;;;;;;;;;;;12.20;66.30;;;7.49;98.49;95978.94;5013121;28;19915;-49
2022/10/09 04:13:44;;;;;;;;;;;12.10;66.40;;;7.45;99.07;95985.75;5013552;28;19912;-49
2022/10/09 04:16:21;;;;;;;;;;;12.10;66.40;;;7.40;99.05;95983.00;5024189;28;19966;-48
2022/10/09 04:18:47;;;;;;;;;;;12.00;66.50;;;7.36;100.00;95984.50;5026590;28;20350;-48
2022/10/09 04:21:16;;;;;;;;;;;12.00;66.60;;;7.34;100.00;95976.78;5009092;28;20071;-46
2022/10/09 04:23:42;;;;;;;;;;;12.00;66.70;;;7.34;100.00;95978.66;5013363;28;20346;-46
2022/10/09 04:26:12;;;;;;;;;;;11.90;66.70;;;7.38;100.00;95977.13;5015637;28;19940;-46
2022/10/09 04:28:38;;;;;;;;;;;11.90;66.80;;;7.40;100.00;95972.41;5043802;28;19920;-47
2022/10/09 04:31:10;;;;;;;;;;;11.90;67.00;;;7.45;100.00;95972.50;5023588;28;19909;-46
2022/10/09 04:33:39;;;;;;;;;;;11.90;67.10;;;7.48;100.00;95974.66;5020630;28;20472;-46
2022/10/09 04:36:07;;;;;;;;;;;11.90;67.20;;;7.46;100.00;95968.00;5013080;28;19913;-46
2022/10/09 04:38:33;;;;;;;;;;;11.90;67.20;;;7.41;100.00;95971.34;5011741;28;19909;-47
2022/10/09 04:41:06;;;;;;;;;;;11.90;67.10;;;7.39;100.00;95966.28;5026149;28;19913;-48
2022/10/09 04:43:38;;;;;;;;;;;11.90;67.10;;;7.38;100.00;95967.31;5014024;28;19965;-46
2022/10/09 04:46:11;;;;;;;;;;;11.90;67.10;;;7.34;100.00;95968.03;5003176;28;20042;-46
2022/10/09 04:48:44;;;;;;;;;;;11.90;67.10;;;7.28;100.00;95966.31;5024847;28;19913;-46
2022/10/09 04:51:16;;;;;;;;;;;11.90;67.10;;;7.25;100.00;95970.25;5003831;28;19952;-52
2022/10/09 04:53:45;;;;;;;;;;;11.80;67.00;;;7.26;100.00;95968.41;5016779;28;19913;-49
2022/10/09 04:56:19;;;;;;;;;;;11.80;67.10;;;7.26;100.00;95969.19;5027920;28;19913;-48
2022/10/09 04:58:51;;;;;;;;;;;11.80;67.10;;;7.24;100.00;95962.50;5024542;28;20497;-53
2022/10/09 05:01:21;;;;;;;;;;;11.80;67.10;;;7.17;100.00;95965.28;5029231;28;20359;-49
2022/10/09 05:03:48;;;;;;;;;;;11.70;67.00;;;7.13;100.00;95966.81;5030899;28;19935;-50
2022/10/09 05:06:24;;;;;;;;;;;11.70;67.10;;;7.13;100.00;95964.97;5012941;28;19909;-49
2022/10/09 05:08:53;;;;;;;;;;;11.70;67.20;;;7.11;100.00;95964.41;5037184;28;19917;-48
2022/10/09 05:11:25;;;;;;;;;;;11.70;67.20;;;7.05;100.00;95964.50;5010745;28;19909;-52
2022/10/09 05:13:54;;;;;;;;;;;11.60;67.10;;;6.98;100.00;95961.19;5012607;28;19979;-49
2022/10/09 05:16:27;;;;;;;;;;;11.60;67.10;;;6.94;100.00;95968.78;5020828;28;19913;-48
2022/10/09 05:18:57;;;;;;;;;;;11.60;67.20;;;6.95;100.00;95970.38;5027767;28;20393;-48
2022/10/09 05:21:24;;;;;;;;;;;11.60;67.30;;;7.02;100.00;95978.22;5024691;28;20076;-51
2022/10/09 05:23:54;;;;;;;;;;;11.60;67.50;;;7.02;100.00;95972.91;5027095;28;20318;-52
2022/10/09 05:26:23;;;;;;;;;;;11.60;67.50;;;7.00;100.00;95967.88;5020982;28;19971;-49
2022/10/09 05:28:49;;;;;;;;;;;11.50;67.50;;;7.01;100.00;95971.31;5009254;28;19927;-48
2022/10/09 05:31:24;;;;;;;;;;;11.50;67.50;;;7.03;100.00;95964.75;5020761;28;19934;-48
2022/10/09 05:33:50;;;;;;;;;;;11.60;67.70;;;7.06;100.00;95974.09;5030855;28;20024;-49
2022/10/09 05:36:17;;;;;;;;;;;11.60;67.70;;;7.08;100.00;95966.69;5031873;28;19908;-48
2022/10/09 05:38:43;;;;;;;;;;;11.60;67.80;;;7.09;100.00;95970.97;5030105;28;19909;-49
2022/10/09 05:41:17;;;;;;;;;;;11.60;67.80;;;7.08;100.00;95969.34;5018058;28;19913;-48
2022/10/09 05:43:47;;;;;;;;;;;11.70;67.80;;;7.09;100.00;95966.47;4992158;28;19917;-48
2022/10/09 05:46:24;;;;;;;;;;;11.70;67.80;;;7.16;100.00;95971.63;4993301;28;19909;-50
2022/10/09 05:48:53;;;;;;;;;;;11.70;67.90;;;7.20;100.00;95970.13;4992450;28;20008;-49
2022/10/09 05:51:28;;;;;;;;;;;11.80;68.00;;;7.27;100.00;95976.13;5005707;28;19917;-49
2022/10/09 05:53:56;;;;;;;;;;;11.80;68.00;;;7.31;100.00;95976.47;4992171;28;19920;-49
2022/10/09 05:56:31;;;;;;;;;;;11.80;68.00;;;7.39;100.00;95976.88;4990754;28;19949;-48
2022/10/09 05:59:01;;;;;;;;;;;11.90;68.00;;;7.47;100.00;95975.72;4996753;28;20385;-48
2022/10/09 06:01:36;;;;;;;;;;;12.00;68.10;;;7.51;100.00;95976.06;4989696;28;19909;-48
2022/10/09 06:04:10;;;;;;;;;;;12.10;68.00;;;7.59;100.00;95981.78;4992786;28;20327;-48
2022/10/09 06:06:38;;;;;;;;;;;12.20;68.00;;;7.68;100.00;95979.59;4995971;28;20257;-50
2022/10/09 06:09:06;;;;;;;;;;;12.20;68.00;;;7.75;100.00;95985.53;4990009;28;19913;-49
2022/10/09 06:11:36;;;;;;;;;;;12.30;68.00;;;7.82;100.00;95980.88;4996913;28;19909;-52
2022/10/09 06:14:05;;;;;;;;;;;12.40;68.00;;;7.91;100.00;95980.53;4992296;28;19935;-54
2022/10/09 06:16:36;;;;;;;;;;;12.50;68.00;;;7.95;100.00;95982.44;4988958;28;19916;-52
2022/10/09 06:19:04;;;;;;;;;;;12.60;67.90;;;8.04;100.00;95983.69;4998915;28;20322;-53
2022/10/09 06:21:30;;;;;;;;;;;12.70;67.80;;;8.12;100.00;95987.81;4993349;28;20015;-54
2022/10/09 06:24:00;;;;;;;;;;;12.80;67.80;;;8.19;100.00;95995.63;5001321;28;19909;-53
2022/10/09 06:26:28;;;;;;;;;;;12.80;67.70;;;8.26;100.00;95989.09;4989745;28;19914;-54
2022/10/09 06:28:55;;;;;;;;;;;12.90;67.60;;;8.28;99.72;95984.38;4995081;28;19979;-50
2022/10/09 06:31:27;;;;;;;;;;;13.00;67.60;;;8.32;99.41;95988.13;4991443;28;19913;-51
2022/10/09 06:34:03;;;;;;;;;;;13.10;67.50;;;8.40;98.82;95994.13;4992126;28;19909;-49
2022/10/09 06:36:33;;;;;;;;;;;13.20;67.50;;;8.46;98.50;95994.00;5007849;28;19953;-51
2022/10/09 06:39:05;;;;;;;;;;;13.20;67.40;;;8.49;97.93;95998.81;5003021;28;20617;-50
2022/10/09 06:41:32;;;;;;;;;;;13.20;67.30;;;8.51;97.28;95996.72;4998811;28;20351;-46
2022/10/09 06:44:07;;;;;;;;;;;13.30;67.30;;;8.54;97.14;95992.78;5018793;28;19951;-48
2022/10/09 06:46:37;;;;;;;;;;;13.40;67.30;;;8.58;97.05;95991.25;5018977;28;19916;-48
2022/10/09 06:49:10;;;;;;;;;;;13.40;67.20;;;8.60;96.73;95994.47;5007638;28;19921;-52
2022/10/09 06:51:37;;;;;;;;;;;13.50;67.20;;;8.64;96.59;95994.78;5024167;28;19908;-49
2022/10/09 06:54:09;;;;;;;;;;;13.50;67.00;;;8.66;96.46;95990.03;5025456;28;19950;-50
2022/10/09 06:56:35;;;;;;;;;;;13.50;67.80;;;8.72;96.13;95999.69;5018658;28;19916;-47
2022/10/09 06:59:04;;;;;;;;;;;13.60;66.90;;;8.78;95.65;95993.41;5024144;28;20387;-50
2022/10/09 07:01:30;;;;;;;;;;;13.60;66.80;;;8.80;95.89;95993.97;5006426;28;19913;-47
2022/10/09 07:04:11;;;;;;;;;;;13.60;66.70;;;8.83;95.25;95992.69;5016142;28;19917;-47
2022/10/09 07:06:41;;;;;;;;;;;13.70;66.60;;;8.87;95.38;96005.25;5004920;28;19995;-53
2022/10/09 07:09:11;;;;;;;;;;;13.80;66.60;;;8.96;94.87;95998.47;5018236;28;19917;-51
2022/10/09 07:11:43;;;;;;;;;;;13.90;66.50;;;9.08;95.05;96000.22;5022944;28;20011;-47
2022/10/09 07:14:16;;;;;;;;;;;14.00;66.50;;;9.17;94.39;96004.88;5018265;28;19909;-49
2022/10/09 07:16:47;;;;;;;;;;;14.10;66.50;;;9.25;93.85;96001.00;5026184;28;20771;-50
2022/10/09 07:19:16;;;;;;;;;;;14.20;66.40;;;9.33;93.29;96008.53;5022534;28;19908;-50
2022/10/09 07:21:49;;;;;;;;;;;14.30;66.20;;;9.43;93.16;96011.34;5013136;28;19931;-47
2022/10/09 07:24:19;;;;;;;;;;;14.40;66.10;;;9.47;92.87;96015.09;5018119;28;19909;-46
2022/10/09 07:26:49;;;;;;;;;;;14.50;66.00;;;9.63;92.54;96008.13;5024032;28;19971;-51
2022/10/09 07:29:23;;;;;;;;;;;14.60;65.90;;;9.68;91.58;96010.03;5010330;28;20387;-48
2022/10/09 07:31:49;;;;;;;;;;;14.70;65.80;;;9.73;90.24;96008.22;5010508;28;19939;-48
2022/10/09 07:34:17;;;;;;;;;;;14.80;65.60;;;9.81;90.68;96011.50;5009593;28;19909;-46
2022/10/09 07:36:46;;;;;;;;;;;14.90;65.40;;;9.90;90.08;96008.19;5010542;28;19909;-46
2022/10/09 07:39:21;;;;;;;;;;;15.00;65.30;;;9.96;89.74;96003.69;5012920;28;20286;-46
2022/10/09 07:41:50;;;;;;;;;;;15.20;65.20;;;10.09;89.48;96002.50;5030116;28;19923;-46
2022/10/09 07:44:18;;;;;;;;;;;15.30;65.00;;;10.12;88.14;96005.47;5014170;28;19908;-45
2022/10/09 07:46:44;;;;;;;;;;;15.40;65.60;;;10.08;87.75;96000.88;5021056;28;20307;-46
2022/10/09 07:49:16;;;;;;;;;;;15.50;64.70;;;9.99;87.26;95997.06;5013031;28;20054;-46
2022/10/09 07:51:41;;;;;;;;;;;15.50;64.30;;;9.96;87.27;96004.53;5011165;28;20351;-46
2022/10/09 07:54:11;;;;;;;;;;;15.50;64.20;;;10.00;86.97;95998.66;5012421;28;19909;-46
2022/10/09 07:56:42;;;;;;;;;;;15.60;63.90;;;9.92;87.75;95999.94;5013989;28;20399;-48
2022/10/09 07:59:15;;;;;;;;;;;15.60;63.70;;;9.94;87.66;96005.81;5013916;28;19909;-50
2022/10/09 08:01:43;;;;;;;;;;;15.60;63.50;;;9.93;87.28;96004.19;5020649;28;19913;-46
2022/10/09 08:04:12;;;;;;;;;;;15.70;63.40;;;10.09;86.83;96003.31;5018783;28;19909;-45
2022/10/09 08:06:38;;;;;;;;;;;15.70;63.40;;;10.15;86.58;96009.47;5013543;28;19937;-45
2022/10/09 08:09:06;;;;;;;;;;;15.80;63.20;;;10.22;85.87;96010.09;5012563;28;20443;-45
2022/10/09 08:11:39;;;;;;;;;;;16.00;63.00;;;10.44;84.82;96011.94;5025026;28;19948;-46
2022/10/09 08:14:12;;;;;;;;;;;16.20;62.80;;;10.61;84.91;96009.94;5017447;28;20257;-45
2022/10/09 08:16:41;;;;;;;;;;;16.40;62.70;;;10.91;84.30;96003.25;5022553;28;20268;-45
2022/10/09 08:19:10;;;;;;;;;;;16.70;62.60;;;11.20;82.73;96009.03;5016396;28;19909;-45
2022/10/09 08:21:39;;;;;;;;;;;16.90;62.40;;;11.25;82.02;96006.38;5024173;28;19908;-45
2022/10/09 08:24:09;;;;;;;;;;;17.20;62.20;;;11.29;81.89;96004.81;5030216;28;19908;-45
2022/10/09 08:26:34;;;;;;;;;;;17.30;61.80;;;11.23;81.35;95998.63;5032005;28;19909;-45
2022/10/09 08:29:03;;;;;;;;;;;17.30;61.50;;;11.28;81.91;96000.53;5025472;28;19921;-44
2022/10/09 08:31:31;;;;;;;;;;;17.30;61.30;;;11.10;81.39;95994.56;5011631;28;20055;-45
2022/10/09 08:34:00;;;;;;;;;;;17.30;61.00;;;11.08;82.03;96001.22;5021906;28;19952;-49
2022/10/09 08:36:30;;;;;;;;;;;17.20;60.90;;;11.13;81.48;96009.25;5019943;28;19999;-47
2022/10/09 08:38:57;;;;;;;;;;;17.20;60.70;;;11.04;81.42;96000.13;5029764;28;19909;-47
2022/10/09 08:41:34;;;;;;;;;;;17.20;60.60;;;10.97;82.70;96000.34;5034186;23;19909;-51
2022/10/09 08:44:16;;;;;;;;;;;17.20;60.60;;;11.06;82.64;96004.16;5031598;28;19978;-48
2022/10/09 08:46:45;;;;;;;;;;;17.20;60.40;;;11.01;81.93;96000.66;5028511;28;19912;-50
2022/10/09 08:49:25;;;;;;;;;;;17.20;60.30;;;11.02;81.78;95997.69;5012168;28;19913;-49
2022/10/09 08:52:02;;;;;;;;;;;17.20;60.20;;;11.17;81.96;96004.22;5021229;28;19999;-49
2022/10/09 08:54:38;;;;;;;;;;;17.20;60.10;;;11.17;81.98;96006.88;5031445;28;19958;-47
2022/10/09 08:57:13;;;;;;;;;;;17.30;60.10;;;11.17;82.24;96005.00;5026941;28;19963;-47
2022/10/09 08:59:43;;;;;;;;;;;17.30;60.00;;;11.19;82.51;96000.22;5014164;28;19916;-47
2022/10/09 09:02:18;;;;;;;;;;;17.40;60.00;;;11.27;82.47;95994.38;5007372;28;19952;-56
2022/10/09 09:05:28;;;;;;;;;;;17.50;59.90;;;11.48;81.91;95997.97;5009643;28;19966;-53
2022/10/09 09:08:01;;;;;;;;;;;17.50;59.80;;;11.46;81.27;95994.75;5012392;28;19909;-56
2022/10/09 09:10:44;;;;;;;;;;;17.70;59.70;;;11.56;81.28;95994.00;5019893;28;20029;-52
2022/10/09 09:13:33;;;;;;;;;;;17.70;59.60;;;11.53;82.22;96005.19;5002292;28;19941;-55
2022/10/09 09:16:38;;;;;;;;;;;17.80;60.10;;;11.64;81.37;95990.03;5013501;28;19909;-55
2022/10/09 09:19:24;;;;;;;;;;;17.90;59.40;;;11.69;81.21;95985.53;5000496;28;19913;-57
2022/10/09 09:21:52;;;;;;;;;;;18.10;59.40;;;11.81;80.78;95983.44;5011205;28;20000;-55
2022/10/09 09:24:54;;;;;;;;;;;18.20;59.10;;;11.78;81.63;95991.97;5007778;28;20413;-52
2022/10/09 09:27:36;;;;;;;;;;;18.30;58.90;;;11.86;81.53;95987.22;5007327;28;20298;-54
2022/10/09 09:30:11;;;;;;;;;;;18.40;58.80;;;11.91;81.52;95987.19;5010229;28;19913;-55
2022/10/09 09:33:08;;;;;;;;;;;18.40;58.80;;;12.02;80.48;95986.97;5012081;28;19916;-52
2022/10/09 09:36:07;;;;;;;;;;;18.40;58.70;;;12.10;80.27;95974.19;5009075;28;20363;-57
2022/10/09 09:38:36;;;;;;;;;;;18.50;58.60;;;12.16;80.02;95981.94;5007129;28;19909;-56
2022/10/09 09:41:08;;;;;;;;;;;18.60;58.50;;;12.29;79.70;95975.28;5010400;28;19986;-47
2022/10/09 09:43:35;;;;;;;;;;;18.60;58.40;;;12.21;79.74;95973.13;5011711;28;19917;-49
2022/10/09 09:46:19;;;;;;;;;;;18.60;58.40;;;12.13;79.45;95977.13;5012328;28;19920;-53
2022/10/09 09:48:49;;;;;;;;;;;18.60;58.20;;;12.20;79.68;95984.88;4991498;28;19953;-49
2022/10/09 09:51:30;;;;;;;;;;;18.60;58.20;;;12.23;79.72;95971.81;5002828;28;20357;-47
2022/10/09 09:53:58;;;;;;;;;;;18.60;58.20;;;12.26;79.12;95983.84;5030595;28;19946;-50
2022/10/09 09:56:41;;;;;;;;;;;18.60;58.80;;;12.26;78.95;95983.84;5031469;28;19909;-47
2022/10/09 09:59:37;;;;;;;;;;;18.50;58.30;;;12.27;79.84;95983.56;5012711;28;19909;-50
2022/10/09 10:02:13;;;;;;;;;;;18.40;58.40;;;12.30;79.26;95982.22;4999658;28;19956;-47
2022/10/09 10:05:14;;;;;;;;;;;18.30;58.40;;;12.24;78.89;95985.97;5000799;28;19909;-51
2022/10/09 10:07:48;;;;;;;;;;;18.30;58.50;;;12.27;79.38;95983.56;5030139;28;19919;-48
2022/10/09 10:10:23;;;;;;;;;;;18.20;58.50;;;12.43;78.82;95980.91;5017178;28;19951;-55
2022/10/09 10:12:52;;;;;;;;;;;18.20;58.60;;;12.23;78.87;95982.50;5005898;28;20340;-51
2022/10/09 10:15:27;;;;;;;;;;;18.10;58.60;;;12.24;78.94;95983.28;5001641;28;19916;-56
2022/10/09 10:18:05;;;;;;;;;;;18.10;58.70;;;12.11;79.00;95979.25;5009417;28;20295;-52
2022/10/09 10:21:00;;;;;;;;;;;18.00;58.60;;;12.26;80.03;95984.63;5003962;28;19913;-51
2022/10/09 10:24:01;;;;;;;;;;;18.00;58.70;;;12.34;79.48;95983.28;5006327;28;19979;-55
2022/10/09 10:26:54;;;;;;;;;;;17.90;58.80;;;12.33;79.15;95986.25;5005623;28;19917;-52
2022/10/09 10:29:46;;;;;;;;;;;17.90;58.90;;;12.38;79.07;95972.88;5006581;28;20375;-53
2022/10/09 10:32:46;;;;;;;;;;;17.90;58.90;;;12.34;79.05;95980.63;5006550;28;20371;-54
2022/10/09 10:35:41;;;;;;;;;;;17.90;58.90;;;12.19;79.69;95981.41;5008042;28;19943;-52
2022/10/09 10:38:51;;;;;;;;;;;17.90;58.80;;;12.32;79.60;95974.75;5008888;28;19908;-53
2022/10/09 10:41:33;;;;;;;;;;;17.90;58.80;;;12.33;79.02;95975.56;4996129;28;19908;-54
2022/10/09 10:44:28;;;;;;;;;;;17.90;58.90;;;12.23;79.81;95974.47;5026557;28;20396;-54
2022/10/09 10:47:12;;;;;;;;;;;17.90;58.80;;;11.98;79.58;95974.44;5008069;28;19913;-54
2022/10/09 10:49:41;;;;;;;;;;;17.90;58.70;;;12.09;80.47;95968.03;5001363;28;20400;-57
2022/10/09 10:52:53;;;;;;;;;;;17.90;58.70;;;12.17;80.55;95972.06;4988656;28;19910;-57
2022/10/09 10:55:31;;;;;;;;;;;17.90;58.70;;;12.18;80.77;95971.00;4990327;28;19982;-57
2022/10/09 10:58:29;;;;;;;;;;;17.90;58.60;;;12.25;81.55;95966.19;4990264;28;20279;-53
2022/10/09 11:01:12;;;;;;;;;;;18.00;58.70;;;12.25;80.99;95966.19;4991120;28;19914;-51
2022/10/09 11:04:17;;;;;;;;;;;18.00;58.70;;;12.27;80.50;95961.38;4988687;28;19979;-53
2022/10/09 11:07:16;;;;;;;;;;;18.00;58.70;;;12.33;80.75;95965.66;4991086;28;19955;-54
2022/10/09 11:09:59;;;;;;;;;;;18.10;58.70;;;12.26;81.09;95965.94;4989353;28;19917;-53
2022/10/09 11:12:53;;;;;;;;;;;18.10;58.60;;;12.19;81.20;95965.41;4990930;28;19920;-51
2022/10/09 11:16:23;;;;;;;;;;;18.10;58.60;;;12.24;80.49;95959.25;4990292;28;19993;-52
2022/10/09 11:19:31;;;;;;;;;;;18.10;58.50;;;12.13;80.50;95957.66;4922444;29;20348;-54
2022/10/09 11:22:32;;;;;;;;;;;18.10;58.40;;;12.08;81.08;95954.97;4985120;28;19951;-53
2022/10/09 11:25:48;;;;;;;;;;;18.20;58.30;;;12.25;81.19;95956.31;4954787;28;20296;-54
2022/10/09 11:28:31;;;;;;;;;;;18.20;58.30;;;12.46;81.06;95956.31;4975648;28;19924;-52
2022/10/09 11:31:11;;;;;;;;;;;18.20;58.40;;;12.61;80.13;95950.19;5028018;28;19990;-54
2022/10/09 11:33:58;;;;;;;;;;;18.30;59.00;;;12.74;79.33;95949.63;5024083;28;19959;-52
2022/10/09 11:36:40;;;;;;;;;;;18.40;58.40;;;12.74;78.95;95942.41;4995103;28;19909;-55
2022/10/09 11:39:23;;;;;;;;;;;18.50;58.40;;;12.64;79.08;95939.75;4991617;28;19925;-52
2022/10/09 11:41:53;;;;;;;;;;;18.60;58.20;;;12.65;79.46;95936.00;5009621;28;20012;-52
2022/10/09 11:45:28;;;;;;;;;;;18.60;58.00;;;12.59;79.70;95934.41;4994710;28;19913;-53
2022/10/09 11:48:17;;;;;;;;;;;18.70;57.90;;;12.50;80.10;95931.50;4963233;28;20008;-58
2022/10/09 11:51:15;;;;;;;;;;;18.80;57.80;;;12.69;79.17;95929.06;4982936;28;19916;-52
2022/10/09 11:53:43;;;;;;;;;;;18.80;57.70;;;12.84;78.38;95917.53;5006438;28;19956;-56
2022/10/09 11:56:33;;;;;;;;;;;18.90;57.70;;;12.98;78.19;95928.47;5006626;28;19916;-56